»·PEaware :: UAL576 KPHX-KSBP

UAL576 :: KPHX-KSBP

FLIGHT INFORMATION

Flight Status: Arrived
Operator:
United Airlines
More flights by this operator :: More flights under this callsign
Pilot: Anonymous 8274 (8274)
Aircraft: BOEING 737-200
(B732)
More flights by this aircraft type
Origin: KPHX Phoenix Sky Harbor Intl
United States
Destination: KSBP San Luis Co Regl
United States
More flights between these airports :: More routes between these airports
Route: +BXK4 PSP YCDIL J96 LAX J88 RZS V12 GVO V27 MQO
File this flight plan on PilotEdge
Remarks:
Altitude:
(Current/Filed)
28,000ft
Speed:
(Current/Filed)
460kts
Departed: 03-May-18 05:21 PM
Arrived: 03-May-18 06:55 PM
Distance/Time
Traveled:
441nm/1:34
Distance/Time
To Go:
Arrived

Flight Plot

Page will automatically refresh every two minutes.

Flight plan parsing failed; only flown route is shown


Map Options




Map Legend


Flown Route
Filed Route
Departure Airport
Arrival Airport
Navaid (VOR, NDB)
Fix

Horizontal Profiles

Position Reports

Time Latitude Longitude Heading Altitude Ground
Speed
03-May-18 16:41 33.434395 -112.013303 288 1117ft 0kts
03-May-18 16:42 33.434395 -112.013303 288 1117ft 0kts
03-May-18 16:43 33.434395 -112.013303 288 1117ft 0kts
03-May-18 16:44 33.434395 -112.013303 288 1117ft 0kts
03-May-18 16:45 33.434395 -112.013303 288 1117ft 0kts
03-May-18 16:46 33.434395 -112.013303 288 1117ft 0kts
03-May-18 16:47 33.434395 -112.013303 288 1117ft 0kts
03-May-18 16:48 33.434395 -112.013303 288 1117ft 0kts
03-May-18 16:49 33.434395 -112.013303 288 1117ft 0kts
03-May-18 16:50 33.434395 -112.013303 288 1117ft 0kts
03-May-18 16:51 33.434395 -112.013303 288 1117ft 0kts
03-May-18 16:52 33.434395 -112.013303 288 1117ft 0kts
03-May-18 16:53 33.434395 -112.013303 288 1117ft 0kts
03-May-18 16:54 33.434395 -112.013303 288 1117ft 0kts
03-May-18 16:55 33.434395 -112.013303 288 1117ft 0kts
03-May-18 16:56 33.434395 -112.013303 288 1117ft 0kts
03-May-18 16:57 33.434395 -112.013303 288 1117ft 0kts
03-May-18 16:58 33.434395 -112.013303 288 1117ft 0kts
03-May-18 16:59 33.434395 -112.013303 288 1117ft 0kts
03-May-18 17:00 33.434395 -112.013303 288 1117ft 0kts
03-May-18 17:01 33.434395 -112.013303 288 1117ft 0kts
03-May-18 17:01 33.434395 -112.013303 288 1117ft 0kts
03-May-18 17:03 33.434395 -112.013303 288 1117ft 0kts
03-May-18 17:04 33.434375 -112.013232 288 1118ft 2kts
03-May-18 17:05 33.434199 -112.012588 288 1117ft 0kts
03-May-18 17:06 33.434407 -112.012259 186 1118ft 0kts
03-May-18 17:07 33.434407 -112.012259 186 1118ft 0kts
03-May-18 17:07 33.434407 -112.012259 186 1118ft 0kts
03-May-18 17:08 33.434401 -112.012260 187 1118ft 0kts
03-May-18 17:09 33.433427 -112.012332 162 1118ft 0kts
03-May-18 17:10 33.433427 -112.012332 162 1118ft 0kts
03-May-18 17:11 33.432151 -112.011021 89 1118ft 13kts
03-May-18 17:12 33.432142 -112.004149 89 1118ft 25kts
03-May-18 17:13 33.432130 -111.996440 92 1118ft 25kts
03-May-18 17:14 33.432002 -111.993571 146 1118ft 0kts
03-May-18 17:15 33.432002 -111.993571 146 1118ft 0kts
03-May-18 17:16 33.432002 -111.993571 146 1118ft 0kts
03-May-18 17:17 33.432002 -111.993571 146 1118ft 0kts
03-May-18 17:18 33.432002 -111.993571 146 1118ft 0kts
03-May-18 17:19 33.431041 -111.993605 270 1118ft 0kts
03-May-18 17:20 33.431110 -112.011589 269 1193ft 147kts
03-May-18 17:21 33.421158 -112.062097 250 2952ft 172kts
03-May-18 17:22 33.400780 -112.129565 250 4989ft 245kts
03-May-18 17:23 33.375091 -112.213607 250 7819ft 278kts
03-May-18 17:24 33.400678 -112.285907 357 10156ft 300kts
03-May-18 17:25 33.481225 -112.295619 312 12316ft 325kts
03-May-18 17:26 33.477973 -112.399253 243 14770ft 350kts
03-May-18 17:27 33.428326 -112.498243 243 17249ft 347kts
03-May-18 17:28 33.387516 -112.601570 272 18508ft 362kts
03-May-18 17:29 33.398103 -112.722976 284 19331ft 392kts
03-May-18 17:30 33.431586 -112.850362 288 20662ft 408kts
03-May-18 17:31 33.474184 -112.973319 289 22997ft 391kts
03-May-18 17:32 33.502515 -113.092612 277 24957ft 369kts
03-May-18 17:33 33.518667 -113.217642 284 25342ft 392kts
03-May-18 17:34 33.546087 -113.343231 289 26299ft 396kts
03-May-18 17:35 33.575664 -113.469928 289 27312ft 397kts
03-May-18 17:36 33.601192 -113.598830 284 27984ft 407kts
03-May-18 17:37 33.620310 -113.731870 283 27985ft 425kts
03-May-18 17:38 33.640596 -113.871633 283 27984ft 429kts
03-May-18 17:39 33.661234 -114.013143 283 27983ft 432kts
03-May-18 17:40 33.689530 -114.152745 288 27982ft 431kts
03-May-18 17:41 33.721191 -114.291827 288 27981ft 433kts
03-May-18 17:42 33.752062 -114.431077 281 27969ft 438kts
03-May-18 17:43 33.761132 -114.577373 278 27980ft 442kts
03-May-18 17:44 33.767432 -114.687352 277 27983ft 443kts
03-May-18 17:45 33.775878 -114.834586 277 27981ft 442kts
03-May-18 17:46 33.785553 -114.981006 280 27982ft 439kts
03-May-18 17:47 33.800094 -115.125859 280 27951ft 438kts
03-May-18 17:48 33.814971 -115.270577 281 27953ft 437kts
03-May-18 17:49 33.828552 -115.415282 280 27952ft 437kts
03-May-18 17:50 33.845142 -115.559360 286 27952ft 433kts
03-May-18 17:51 33.863756 -115.661802 285 28025ft 432kts
03-May-18 17:52 33.840051 -115.773883 248 28127ft 451kts
03-May-18 17:53 33.832069 -115.916364 277 28117ft 434kts
03-May-18 17:54 33.837807 -116.060493 277 28048ft 436kts
03-May-18 17:55 33.852533 -116.201356 285 27980ft 434kts
03-May-18 17:56 33.863600 -116.346200 272 27982ft 442kts
03-May-18 17:57 33.858853 -116.485400 272 27979ft 442kts
03-May-18 17:58 33.858541 -116.631986 276 27978ft 440kts
03-May-18 17:59 33.864043 -116.754490 279 27981ft 438kts
03-May-18 18:00 33.874210 -116.899723 279 27980ft 439kts
03-May-18 18:01 33.884494 -117.045352 279 27980ft 439kts
03-May-18 18:02 33.900122 -117.184926 282 27979ft 438kts
03-May-18 18:03 33.916210 -117.321976 282 27979ft 438kts
03-May-18 18:04 33.933236 -117.466303 282 27978ft 439kts
03-May-18 18:05 33.950094 -117.609806 279 27975ft 440kts
03-May-18 18:06 33.934281 -117.723467 261 27981ft 451kts
03-May-18 18:07 33.915615 -117.860276 269 27980ft 446kts
03-May-18 18:08 33.911185 -118.002662 275 27981ft 443kts
03-May-18 18:09 33.915353 -118.148336 278 27980ft 442kts
03-May-18 18:10 33.923907 -118.295303 281 27980ft 440kts
03-May-18 18:11 33.941054 -118.439632 283 27978ft 439kts
03-May-18 18:12 33.972083 -118.577239 309 27997ft 424kts
03-May-18 18:14 34.035012 -118.674797 310 27348ft 386kts
03-May-18 18:15 34.096706 -118.776527 294 25003ft 382kts
03-May-18 18:16 34.122583 -118.884661 293 23996ft 366kts
03-May-18 18:17 34.160435 -118.997881 301 23991ft 374kts
03-May-18 18:18 34.209619 -119.108756 302 23806ft 367kts
03-May-18 18:19 34.261006 -119.211551 305 21588ft 357kts
03-May-18 18:20 34.314456 -119.309784 307 19511ft 345kts
03-May-18 18:21 34.359747 -119.409709 300 17486ft 337kts
03-May-18 18:22 34.397432 -119.511364 298 15507ft 328kts
03-May-18 18:23 34.433263 -119.609578 302 13594ft 317kts
03-May-18 18:24 34.477379 -119.697706 305 11727ft 306kts
03-May-18 18:25 34.514768 -119.788687 284 10323ft 294kts
03-May-18 18:26 34.512213 -119.883128 284 9237ft 275kts
03-May-18 18:27 34.521392 -119.973036 279 8867ft 274kts
03-May-18 18:28 34.525639 -120.065071 286 8860ft 269kts
03-May-18 18:29 34.569798 -120.129831 321 8863ft 249kts
03-May-18 18:30 34.624478 -120.180259 326 8862ft 246kts
03-May-18 18:31 34.681533 -120.226115 327 8864ft 249kts
03-May-18 18:32 34.736840 -120.277269 323 8540ft 249kts
03-May-18 18:33 34.790602 -120.331040 323 7021ft 248kts
03-May-18 18:34 34.842870 -120.383458 323 5647ft 243kts
03-May-18 18:35 34.895796 -120.432236 327 4300ft 237kts
03-May-18 18:36 34.949150 -120.477319 328 3859ft 231kts
03-May-18 18:37 35.002049 -120.520524 328 3858ft 228kts
03-May-18 18:38 35.053995 -120.564433 326 3857ft 226kts
03-May-18 18:39 35.101427 -120.612497 321 3857ft 226kts
03-May-18 18:40 35.145070 -120.659458 323 3869ft 226kts
03-May-18 18:41 35.190645 -120.705357 326 3836ft 188kts
03-May-18 18:42 35.229175 -120.739624 330 3869ft 167kts
03-May-18 18:43 35.250829 -120.787583 282 3759ft 183kts
03-May-18 18:44 35.263022 -120.846424 296 3370ft 178kts
03-May-18 18:45 35.289374 -120.893778 322 3370ft 171kts
03-May-18 18:46 35.316784 -120.939128 265 3392ft 197kts
03-May-18 18:47 35.265278 -120.948264 118 3389ft 235kts
03-May-18 18:48 35.260536 -120.877393 77 2660ft 204kts
03-May-18 18:49 35.261178 -120.807776 88 2708ft 205kts
03-May-18 18:50 35.249281 -120.744841 89 2581ft 171kts
03-May-18 18:51 35.239731 -120.689641 90 1378ft 160kts
03-May-18 18:52 35.215032 -120.641275 122 1311ft 173kts
03-May-18 18:53 35.207485 -120.602242 347 1184ft 110kts
03-May-18 18:54 35.229519 -120.627425 315 354ft 106kts
03-May-18 18:55 35.239619 -120.644314 2 184ft 15kts
03-May-18 18:56 35.238832 -120.641923 127 184ft 7kts
03-May-18 18:57 35.237389 -120.638291 92 184ft 11kts

Navigation Log

Ident Type
Flight plan parsing failed, navigation log unavailable